AREA preflight bulletin
Updated "live" 24 Sep 2018, 17:08

back to the map




METAR og TAF


THULE (MIL)
  AKTUEL BGTL 241556Z COR 14003KT 9999 CLR M06/M13 A2943 RMK AO2A SLP954 T10561132 TSNO ? COR 1644=
  TAF 24 timer BGTL 240900Z 2409/2515 13009KT 9999 FEW085 QNH2940INS TXM08/2411Z TNM12/2500Z=

QAANAAQ
  AKTUEL BGQQ 241650Z 16005KT 9999 SKC M04/M14 Q0998=
  TAF 9 timer BGQQ 241459Z 2415/2419 02005KT 9999 FEW200=

UPERNAVIK
  AKTUEL BGUK 241550Z 08003KT 9999 BKN024 M02/M06 Q0998=
  TAF 9 timer BGUK 241459Z 2415/2419 09005KT 9999 BKN020 TEMPO 2415/2419 SCT020=

ILULISSAT
  AKTUEL BGJN 241650Z 02007KT 9999 BKN350 03/M03 Q0995=
  TAF 9 timer BGJN 241422Z 2415/2422 10008KT 9999 BKN100 TEMPO 2415/2422 BKN060=

KANGERLUSSUAQ
  AKTUEL BGSF 241650Z AUTO 26008KT 9999NDV NCD 06/M07 Q0995=
  TAF 24 timer BGSF 241707Z 2418/2524 26008KT 9999 SCT060 BECMG 2421/2423 6000 -SNRA BKN030 TEMPO 2423/2516 2000 SN VV008 TEMPO 2516/2524 9999 NSW BKN050=


SIGMETS:

Ingen SIGMET fundet:

SNOWTAM:

ICAO
BGUK (UPERNAVIK)

valid from:
1809241046

Notam_id:
0018

SNOWTAM 0018 A)BGUK B)09241046 C)05 F)3/3/3 G)1/1/1 H)5/5/5 N)3/GOOD R)3/GOOD T)RWY CONTAMINATION 100 PERCENT 1MM RIME - MEASURED FRICTION COEFFICIENT 90/90/90 TAP



NOTAM/SNOWTAM for operationel use has to be confirmed with the
nearest AIS Briefing Office prior to a flight.

ICAO
BGTL (THULE (MIL))

FIR
BGGL

Notam_id:
BGA0383/18

valid from:
1810110000

E) TRIGGER NOTAM - PERM AIP AIRAC AMDT 09/18 WEF 11 OCT 2018. CHANGE TO TEL.

valid to:
1810242359




ICAO
BGTL (THULE (MIL))

FIR
BGGL

Notam_id:
BGA0453/18

valid from:
1809241900

E) AERODROME OPEN 24 HOURS IN SUPPORT OF BOXTOP II/18 OPERATIONS, CANADIAN RE-SUPPLY OF STATION ALERT AND STATION EUREKA ONLY. ALL OTHER AIRCRAFT MUST COMPLY WITH PUBLISHED OPERATING HOURS.

valid to:
1809290900




ICAO
BGUK (UPERNAVIK)

FIR
BGGL

Notam_id:
BGB0773/18

valid from:
1809241108

E) OBST LIGHT ANEMOMETER THR 05 U/S.

valid to:
1810191400


Replacing:
BGB0737/18

ICAO
BGUK (UPERNAVIK)

FIR
BGGL

Notam_id:
BGB0699/18

valid from:
1810110000

E) TRIGGER NOTAM - PERM AIP AIRAC AMDT 09/18 WEF 11 OCT 2018. NEW TEL ADDED.

valid to:
1810242359




ICAO
BGUK (UPERNAVIK)

FIR
BGGL

Notam_id:
BGB0631/18

valid from:
1807271443

E) FIRE AND RESCUE CAT.5 ONLY AVAILABLE WHEN REQUESTED DUE TO LACK OF STAFF.

valid to:
1812311400EST


Replacing:
BGB0610/18

ICAO
BGGL (SONDRESTROM FIR)

FIR
BGGL

Notam_id:
BGA0299/18

valid from:
1809130000

E) AIP AIRAC AMDT EFFECTIVE DATE 13 SEP 2018: NIL.

valid to:
1809262359




ICAO
BGGL (SONDRESTROM FIR)

FIR
BGGL

Notam_id:
BGA0405/18

valid from:
1809010501

E) CHECKLIST YEAR=2017 0269 YEAR=2018 0199 0213 0214 0215 0299 0365 0366 0383 0389 0393 0394 0401 0402 0403 LATEST PUBLICATIONS AIP AIRAC AMDT IFR 009/2018 EFFECTIVE DATE 11 OCT 18 AIP AMDT IFR 003/2018 EFFECTIVE DATE 15 MAR 18 AIP SUP IFR 006/2018 EFFECTIVE DATE 18 JUN 18 AIC IFR A003/2018 EFFECTIVE DATE 29 AUG 18

valid to:
1810010501EST


Replacing:
BGA0327/18

ICAO
BGGL (SONDRESTROM FIR)

FIR
BGGL

Notam_id:
BGB0731/18

valid from:
1809010502

E) CHECKLIST YEAR=2017 0740 0930 YEAR=2018 0384 0511 0523 0605 0618 0622 0631 0659 0679 0688 0696 0697 0698 0699 0704 0715 0716 0717 0721 0722 0726 0727 0728 0730 LATEST PUBLICATIONS AIP AIRAC AMDT IFR 009/2018 EFFECTIVE DATE 11 OCT 18 AIP AMDT IFR 003/2018 EFFECTIVE DATE 15 MAR 18 AIP SUP IFR 006/2018 EFFECTIVE DATE 18 JUN 18 AIC IFR A003/2018 EFFECTIVE DATE 29 AUG 18

valid to:
1810010502EST


Replacing:
BGB0641/18

ICAO
BGGL (SONDRESTROM FIR)

FIR
BGGL

Notam_id:
BGC0062/18

valid from:
1809010502

E) CHECKLIST YEAR=2018 0058 0059 0060 LATEST PUBLICATIONS AIP AIRAC AMDT IFR 009/2018 EFFECTIVE DATE 11 OCT 18 AIP AMDT IFR 003/2018 EFFECTIVE DATE 15 MAR 18 AIP SUP IFR 006/2018 EFFECTIVE DATE 18 JUN 18 AIC IFR A003/2018 EFFECTIVE DATE 29 AUG 18

valid to:
1810010502EST


Replacing:
BGC0056/18

ICAO
BGGL (SONDRESTROM FIR)

FIR
BGGL

Notam_id:
BGB0704/18

valid from:
1808241401

E) OBST LIGHTS ON MAST 213 ON THE SOUTHERN PART OF TUNULLIARFIK OUT OF SERVICE

valid to:
1810011800




ICAO
BGGL (SONDRESTROM FIR)

FIR
BGGL

Notam_id:
BGA0199/18

valid from:
1805310935

E) GREENLAND AND ADJACENT WATERS ARE CONSIDERED HOSTILE AREAS BY THE CIVIL AVIATION AUTHORITY (TBST). THREE MAJOR REASONS CONTRIBUTE TO DEFINING THE AREA AS HOSTILE: A SAFE FORCED LANDING CANNOT BE ACCOMPLISHED BECAUSE THE SURFACE IS INADEQUATE. THE HELICOPTER OCCUPANTS CANNOT BE ADEQUATELY PROTECTED FROM THE ELEMENTS. SEARCH AND RESCUE RESPONSE/CAPABILITY ARE NOT PROVIDED CONSISTENT WITH ANTICIPATED EXPOSURE.

valid to:
PERM




ICAO
BGJN (ILULISSAT)

FIR
BGGL

Notam_id:
BGB0696/18

valid from:
1810110000

E) TRIGGER NOTAM - PERM AIP AIRAC AMDT 09/18 WEF 11 OCT 2018. FAX WITHDRAWN.

valid to:
1810242359




ICAO
BGJN (ILULISSAT)

FIR
BGGL

Notam_id:
BGB0750/18

valid from:
1809110956

E) RWY 07/25 EVERY SECOND APCH LIGHT OUT OF SERVICE.

valid to:
1810312000




ICAO
BGJN (ILULISSAT)

FIR
BGGL

Notam_id:
BGB0772/18

valid from:
1809240939

E) SEA RESCUE NOT AVBL.

valid to:
1810031900




ICAO
BGJN (ILULISSAT)

FIR
BGGL

Notam_id:
BGB0605/18

valid from:
1807201213

E) ILULISSAT FAX +299 94 40 08 TERMINATED AND NO LONGER IN USE.

valid to:
PERM




ICAO
BGSF (KANGERLUSSUAQ)

FIR
BGGL

Notam_id:
BGA0431/18

valid from:
1809101703

E) PAPI LIGHTS ARE SET ON 10 PERCENT INTENSITY. 20 MINUTES PRIOR NOTICE REQUIRED TO CHANGE SETTING.

valid to:
1809301800EST


Replacing:
BGA0213/18

ICAO
BGSF (KANGERLUSSUAQ)

FIR
BGGL

Notam_id:
BGA0432/18

valid from:
1809101705

E) APCH LIGHTS ARE SET ON 10 PERCENT INTENSITY. 20 MINUTES PRIOR NOTICE REQUIRED TO CHANGE SETTING.

valid to:
1809301800EST


Replacing:
BGA0214/18

ICAO
BGSF (KANGERLUSSUAQ)

FIR
BGGL

Notam_id:
BGA0433/18

valid from:
1809101705

E) RWY EDGE LIGHTS ARE SET ON 10 PERCENT INTENSITY. 20 MINUTES PRIOR NOTICE REQUIRED TO CHANGE SETTING.

valid to:
1809301800EST


Replacing:
BGA0215/18

ICAO
BGSF (KANGERLUSSUAQ)

FIR
BGGL

Notam_id:
BGA0445/18

valid from:
1809131554

E) BGSF FBO E-MAIL ADDRESS: BGSF(AT)MIT.GL REF AIP GRL/AD 2 - BGSF, GEN 3.3 - 2 AND GEN 3.4 - 3.

valid to:
PERM




ICAO
BGSF (KANGERLUSSUAQ)

FIR
BGGL

Notam_id:
BGA0420/18

valid from:
1809071508

E) RWY MAINT IS BEING CONDUCTED. LANDINGS: MAINT WILL HAVE NO EFFECT. DEPARTURES: AIRCRAFT MAY EXPECT 09-B OR 27-C FOR DEPARTURE, ADVICE ATC PRIOR TO START UP IF FULL RWY LENGTH OR RWY 27 IS REQUIRED. FOR MORE INFORMATION: CONTACT ARO TEL. 00299 382905

valid to:
1809261900EST


Replacing:
BGA0419/18


Copyright Naviair   2003-2016